Aviation Digital Data Service (ADDS)

Output produced by TAFs form (0448 UTC 24 August 2016)
found at http://aviationweather.gov/adds/tafs/
 
KPUB 240415Z 2404/2424 27015KT P6SM VCSH SCT060 BKN110 
     TEMPO 2404/2407 VRB15G25KT -SHRA BKN060 
     FM240700 30012KT P6SM VCSH BKN060 BKN120 
     FM241200 31008KT P6SM BKN060 
     FM241800 09008KT P6SM SCT060 BKN100